sensor_id;sensor_type;location;lat;lon;timestamp;P1;durP1;ratioP1;P2;durP2;ratioP2
72761;SDS011;60886;55.034;73.150;2024-01-07T00:02:48;13.23;;;3.92;;
72761;SDS011;60886;55.034;73.150;2024-01-07T00:05:49;5.50;;;1.30;;
72761;SDS011;60886;55.034;73.150;2024-01-07T00:08:54;6.13;;;1.98;;
72761;SDS011;60886;55.034;73.150;2024-01-07T00:11:55;4.95;;;2.08;;
72761;SDS011;60886;55.034;73.150;2024-01-07T00:14:57;4.67;;;1.60;;
72761;SDS011;60886;55.034;73.150;2024-01-07T00:17:59;4.77;;;2.20;;
72761;SDS011;60886;55.034;73.150;2024-01-07T00:21:00;7.63;;;1.57;;
72761;SDS011;60886;55.034;73.150;2024-01-07T00:24:02;7.60;;;2.50;;
72761;SDS011;60886;55.034;73.150;2024-01-07T00:27:03;4.63;;;1.15;;
72761;SDS011;60886;55.034;73.150;2024-01-07T00:30:06;8.40;;;3.37;;
72761;SDS011;60886;55.034;73.150;2024-01-07T00:33:12;19.08;;;4.32;;
72761;SDS011;60886;55.034;73.150;2024-01-07T00:36:14;7.80;;;2.93;;
72761;SDS011;60886;55.034;73.150;2024-01-07T00:39:15;11.40;;;3.50;;
72761;SDS011;60886;55.034;73.150;2024-01-07T00:42:17;11.97;;;3.70;;
72761;SDS011;60886;55.034;73.150;2024-01-07T00:45:18;8.38;;;2.85;;
72761;SDS011;60886;55.034;73.150;2024-01-07T00:48:20;6.40;;;4.07;;
72761;SDS011;60886;55.034;73.150;2024-01-07T00:51:22;6.05;;;3.50;;
72761;SDS011;60886;55.034;73.150;2024-01-07T00:54:23;5.60;;;2.50;;
72761;SDS011;60886;55.034;73.150;2024-01-07T00:57:25;9.07;;;2.63;;
72761;SDS011;60886;55.034;73.150;2024-01-07T01:00:26;6.80;;;2.87;;
72761;SDS011;60886;55.034;73.150;2024-01-07T01:03:35;12.35;;;3.90;;
72761;SDS011;60886;55.034;73.150;2024-01-07T01:06:36;10.50;;;4.32;;
72761;SDS011;60886;55.034;73.150;2024-01-07T01:09:38;17.80;;;4.07;;
72761;SDS011;60886;55.034;73.150;2024-01-07T01:12:40;12.15;;;3.08;;
72761;SDS011;60886;55.034;73.150;2024-01-07T01:15:42;7.10;;;3.38;;
72761;SDS011;60886;55.034;73.150;2024-01-07T01:18:44;10.60;;;3.60;;
72761;SDS011;60886;55.034;73.150;2024-01-07T01:21:45;10.55;;;4.45;;
72761;SDS011;60886;55.034;73.150;2024-01-07T01:24:47;7.20;;;3.92;;
72761;SDS011;60886;55.034;73.150;2024-01-07T01:27:50;8.70;;;2.78;;
72761;SDS011;60886;55.034;73.150;2024-01-07T01:30:51;6.07;;;2.83;;
72761;SDS011;60886;55.034;73.150;2024-01-07T01:33:54;11.07;;;4.45;;
72761;SDS011;60886;55.034;73.150;2024-01-07T01:36:55;9.00;;;3.30;;
72761;SDS011;60886;55.034;73.150;2024-01-07T01:39:57;12.05;;;3.50;;
72761;SDS011;60886;55.034;73.150;2024-01-07T01:42:58;15.75;;;5.15;;
72761;SDS011;60886;55.034;73.150;2024-01-07T01:46:01;15.37;;;5.40;;
72761;SDS011;60886;55.034;73.150;2024-01-07T01:49:03;9.77;;;4.35;;
72761;SDS011;60886;55.034;73.150;2024-01-07T01:52:05;9.95;;;4.30;;
72761;SDS011;60886;55.034;73.150;2024-01-07T01:55:07;8.02;;;2.92;;
72761;SDS011;60886;55.034;73.150;2024-01-07T01:58:09;10.27;;;3.42;;
72761;SDS011;60886;55.034;73.150;2024-01-07T02:01:11;5.87;;;3.23;;
72761;SDS011;60886;55.034;73.150;2024-01-07T02:04:14;12.68;;;4.00;;
72761;SDS011;60886;55.034;73.150;2024-01-07T02:07:16;17.67;;;6.00;;
72761;SDS011;60886;55.034;73.150;2024-01-07T02:10:18;10.13;;;3.50;;
72761;SDS011;60886;55.034;73.150;2024-01-07T02:13:23;3.95;;;1.52;;
72761;SDS011;60886;55.034;73.150;2024-01-07T02:16:26;7.78;;;4.38;;
72761;SDS011;60886;55.034;73.150;2024-01-07T02:19:27;17.00;;;4.35;;
72761;SDS011;60886;55.034;73.150;2024-01-07T02:22:29;7.00;;;3.77;;
72761;SDS011;60886;55.034;73.150;2024-01-07T02:25:36;7.40;;;3.65;;
72761;SDS011;60886;55.034;73.150;2024-01-07T02:28:38;19.60;;;4.57;;
72761;SDS011;60886;55.034;73.150;2024-01-07T02:31:40;9.20;;;3.17;;
72761;SDS011;60886;55.034;73.150;2024-01-07T02:34:41;16.87;;;3.27;;
72761;SDS011;60886;55.034;73.150;2024-01-07T02:37:43;6.32;;;2.63;;
72761;SDS011;60886;55.034;73.150;2024-01-07T02:40:44;11.37;;;3.13;;
72761;SDS011;60886;55.034;73.150;2024-01-07T02:43:54;10.14;;;4.57;;
72761;SDS011;60886;55.034;73.150;2024-01-07T02:46:56;13.20;;;4.20;;
72761;SDS011;60886;55.034;73.150;2024-01-07T02:49:58;5.72;;;3.72;;
72761;SDS011;60886;55.034;73.150;2024-01-07T02:53:00;11.33;;;4.77;;
72761;SDS011;60886;55.034;73.150;2024-01-07T02:56:01;12.43;;;5.30;;
72761;SDS011;60886;55.034;73.150;2024-01-07T02:59:03;5.53;;;2.70;;
72761;SDS011;60886;55.034;73.150;2024-01-07T03:02:05;16.45;;;4.53;;
72761;SDS011;60886;55.034;73.150;2024-01-07T03:05:06;11.13;;;4.40;;
72761;SDS011;60886;55.034;73.150;2024-01-07T03:08:08;10.20;;;4.93;;
72761;SDS011;60886;55.034;73.150;2024-01-07T03:11:10;8.25;;;3.35;;
72761;SDS011;60886;55.034;73.150;2024-01-07T03:14:12;6.20;;;3.87;;
72761;SDS011;60886;55.034;73.150;2024-01-07T03:17:14;10.87;;;3.60;;
72761;SDS011;60886;55.034;73.150;2024-01-07T03:20:18;29.83;;;12.93;;
72761;SDS011;60886;55.034;73.150;2024-01-07T03:23:24;12.18;;;5.22;;
72761;SDS011;60886;55.034;73.150;2024-01-07T03:26:29;9.70;;;4.00;;
72761;SDS011;60886;55.034;73.150;2024-01-07T03:29:33;15.90;;;4.57;;
72761;SDS011;60886;55.034;73.150;2024-01-07T03:32:37;9.13;;;3.77;;
72761;SDS011;60886;55.034;73.150;2024-01-07T03:35:38;12.43;;;3.33;;
72761;SDS011;60886;55.034;73.150;2024-01-07T03:38:40;10.98;;;4.78;;
72761;SDS011;60886;55.034;73.150;2024-01-07T03:41:42;15.00;;;4.73;;
72761;SDS011;60886;55.034;73.150;2024-01-07T03:44:44;6.45;;;2.33;;
72761;SDS011;60886;55.034;73.150;2024-01-07T03:47:46;10.82;;;3.50;;
72761;SDS011;60886;55.034;73.150;2024-01-07T03:50:48;9.32;;;3.10;;
72761;SDS011;60886;55.034;73.150;2024-01-07T03:53:54;7.65;;;3.70;;
72761;SDS011;60886;55.034;73.150;2024-01-07T03:56:55;27.40;;;5.70;;
72761;SDS011;60886;55.034;73.150;2024-01-07T03:59:57;16.70;;;7.13;;
72761;SDS011;60886;55.034;73.150;2024-01-07T04:02:59;13.05;;;5.18;;
72761;SDS011;60886;55.034;73.150;2024-01-07T04:06:06;10.77;;;3.70;;
72761;SDS011;60886;55.034;73.150;2024-01-07T04:09:08;11.37;;;5.30;;
72761;SDS011;60886;55.034;73.150;2024-01-07T04:12:10;8.27;;;3.20;;
72761;SDS011;60886;55.034;73.150;2024-01-07T04:15:13;11.60;;;4.03;;
72761;SDS011;60886;55.034;73.150;2024-01-07T04:18:16;13.18;;;4.68;;
72761;SDS011;60886;55.034;73.150;2024-01-07T04:21:25;7.43;;;3.70;;
72761;SDS011;60886;55.034;73.150;2024-01-07T04:24:26;10.03;;;3.47;;
72761;SDS011;60886;55.034;73.150;2024-01-07T04:27:28;12.43;;;4.75;;
72761;SDS011;60886;55.034;73.150;2024-01-07T04:30:31;11.13;;;4.57;;
72761;SDS011;60886;55.034;73.150;2024-01-07T04:33:36;10.02;;;5.32;;
72761;SDS011;60886;55.034;73.150;2024-01-07T04:36:38;10.23;;;3.33;;
72761;SDS011;60886;55.034;73.150;2024-01-07T04:39:39;8.10;;;3.25;;
72761;SDS011;60886;55.034;73.150;2024-01-07T04:42:41;24.25;;;6.03;;
72761;SDS011;60886;55.034;73.150;2024-01-07T04:45:43;7.30;;;3.92;;
72761;SDS011;60886;55.034;73.150;2024-01-07T04:48:54;8.78;;;2.78;;
72761;SDS011;60886;55.034;73.150;2024-01-07T04:52:04;11.43;;;4.17;;
72761;SDS011;60886;55.034;73.150;2024-01-07T04:55:07;20.50;;;5.38;;
72761;SDS011;60886;55.034;73.150;2024-01-07T04:58:10;16.02;;;7.35;;
72761;SDS011;60886;55.034;73.150;2024-01-07T05:01:14;13.37;;;4.57;;
72761;SDS011;60886;55.034;73.150;2024-01-07T05:04:16;11.73;;;4.27;;
72761;SDS011;60886;55.034;73.150;2024-01-07T05:07:17;12.70;;;4.97;;
72761;SDS011;60886;55.034;73.150;2024-01-07T05:10:20;8.53;;;3.87;;
72761;SDS011;60886;55.034;73.150;2024-01-07T05:13:24;12.55;;;5.97;;
72761;SDS011;60886;55.034;73.150;2024-01-07T05:16:26;12.65;;;4.47;;
72761;SDS011;60886;55.034;73.150;2024-01-07T05:19:30;10.87;;;4.13;;
72761;SDS011;60886;55.034;73.150;2024-01-07T05:22:32;11.40;;;4.60;;
72761;SDS011;60886;55.034;73.150;2024-01-07T05:25:34;11.43;;;5.10;;
72761;SDS011;60886;55.034;73.150;2024-01-07T05:28:36;13.30;;;5.20;;
72761;SDS011;60886;55.034;73.150;2024-01-07T05:31:39;8.77;;;3.93;;
72761;SDS011;60886;55.034;73.150;2024-01-07T05:34:41;14.53;;;5.43;;
72761;SDS011;60886;55.034;73.150;2024-01-07T05:37:43;10.43;;;4.07;;
72761;SDS011;60886;55.034;73.150;2024-01-07T05:40:44;21.03;;;5.77;;
72761;SDS011;60886;55.034;73.150;2024-01-07T05:43:53;11.95;;;3.97;;
72761;SDS011;60886;55.034;73.150;2024-01-07T05:46:55;7.80;;;3.43;;
72761;SDS011;60886;55.034;73.150;2024-01-07T05:49:57;9.07;;;3.87;;
72761;SDS011;60886;55.034;73.150;2024-01-07T05:52:58;15.32;;;3.83;;
72761;SDS011;60886;55.034;73.150;2024-01-07T05:56:00;14.47;;;5.50;;
72761;SDS011;60886;55.034;73.150;2024-01-07T05:59:02;12.63;;;3.70;;
72761;SDS011;60886;55.034;73.150;2024-01-07T06:02:04;8.80;;;4.40;;
72761;SDS011;60886;55.034;73.150;2024-01-07T06:05:05;9.93;;;5.70;;
72761;SDS011;60886;55.034;73.150;2024-01-07T06:08:10;10.95;;;4.90;;
72761;SDS011;60886;55.034;73.150;2024-01-07T06:11:11;11.80;;;4.00;;
72761;SDS011;60886;55.034;73.150;2024-01-07T06:14:19;9.45;;;4.13;;
72761;SDS011;60886;55.034;73.150;2024-01-07T06:17:23;13.35;;;5.15;;
72761;SDS011;60886;55.034;73.150;2024-01-07T06:20:27;11.40;;;4.00;;
72761;SDS011;60886;55.034;73.150;2024-01-07T06:23:32;15.93;;;5.40;;
72761;SDS011;60886;55.034;73.150;2024-01-07T06:26:34;12.53;;;4.10;;
72761;SDS011;60886;55.034;73.150;2024-01-07T06:29:37;11.07;;;4.40;;
72761;SDS011;60886;55.034;73.150;2024-01-07T06:32:39;9.45;;;3.63;;
72761;SDS011;60886;55.034;73.150;2024-01-07T06:35:40;11.45;;;4.93;;
72761;SDS011;60886;55.034;73.150;2024-01-07T06:38:42;14.73;;;4.93;;
72761;SDS011;60886;55.034;73.150;2024-01-07T06:41:44;9.27;;;4.32;;
72761;SDS011;60886;55.034;73.150;2024-01-07T06:44:46;15.07;;;4.47;;
72761;SDS011;60886;55.034;73.150;2024-01-07T06:47:47;15.25;;;4.00;;
72761;SDS011;60886;55.034;73.150;2024-01-07T06:50:49;17.60;;;5.40;;
72761;SDS011;60886;55.034;73.150;2024-01-07T06:53:53;10.45;;;5.13;;
72761;SDS011;60886;55.034;73.150;2024-01-07T06:56:55;22.73;;;5.20;;
72761;SDS011;60886;55.034;73.150;2024-01-07T06:59:58;10.10;;;4.87;;
72761;SDS011;60886;55.034;73.150;2024-01-07T07:03:00;14.60;;;5.15;;
72761;SDS011;60886;55.034;73.150;2024-01-07T07:06:03;14.27;;;4.80;;
72761;SDS011;60886;55.034;73.150;2024-01-07T07:09:05;10.87;;;4.13;;
72761;SDS011;60886;55.034;73.150;2024-01-07T07:12:07;17.15;;;4.32;;
72761;SDS011;60886;55.034;73.150;2024-01-07T07:15:09;10.73;;;4.53;;
72761;SDS011;60886;55.034;73.150;2024-01-07T07:18:13;9.80;;;4.38;;
72761;SDS011;60886;55.034;73.150;2024-01-07T07:21:15;10.40;;;3.67;;
72761;SDS011;60886;55.034;73.150;2024-01-07T07:24:16;16.73;;;5.50;;
72761;SDS011;60886;55.034;73.150;2024-01-07T07:27:18;16.08;;;5.07;;
72761;SDS011;60886;55.034;73.150;2024-01-07T07:30:20;17.20;;;5.80;;
72761;SDS011;60886;55.034;73.150;2024-01-07T07:33:29;6.22;;;3.28;;
72761;SDS011;60886;55.034;73.150;2024-01-07T07:36:31;17.93;;;5.03;;
72761;SDS011;60886;55.034;73.150;2024-01-07T07:39:33;15.53;;;4.83;;
72761;SDS011;60886;55.034;73.150;2024-01-07T07:42:36;9.55;;;2.47;;
72761;SDS011;60886;55.034;73.150;2024-01-07T07:45:38;10.70;;;3.73;;
72761;SDS011;60886;55.034;73.150;2024-01-07T07:48:41;19.70;;;4.88;;
72761;SDS011;60886;55.034;73.150;2024-01-07T07:51:43;10.10;;;3.33;;
72761;SDS011;60886;55.034;73.150;2024-01-07T07:54:45;14.33;;;4.63;;
72761;SDS011;60886;55.034;73.150;2024-01-07T07:57:46;7.80;;;2.85;;
72761;SDS011;60886;55.034;73.150;2024-01-07T08:00:51;9.20;;;3.67;;
72761;SDS011;60886;55.034;73.150;2024-01-07T08:03:53;13.93;;;4.45;;
72761;SDS011;60886;55.034;73.150;2024-01-07T08:06:56;10.15;;;3.95;;
72761;SDS011;60886;55.034;73.150;2024-01-07T08:09:57;17.25;;;4.30;;
72761;SDS011;60886;55.034;73.150;2024-01-07T08:12:59;15.67;;;4.60;;
72761;SDS011;60886;55.034;73.150;2024-01-07T08:16:02;15.60;;;4.00;;
72761;SDS011;60886;55.034;73.150;2024-01-07T08:19:04;9.27;;;3.67;;
72761;SDS011;60886;55.034;73.150;2024-01-07T08:22:06;8.65;;;2.78;;
72761;SDS011;60886;55.034;73.150;2024-01-07T08:25:07;6.78;;;2.17;;
72761;SDS011;60886;55.034;73.150;2024-01-07T08:28:09;16.40;;;3.70;;
72761;SDS011;60886;55.034;73.150;2024-01-07T08:31:11;10.83;;;2.83;;
72761;SDS011;60886;55.034;73.150;2024-01-07T08:34:13;7.53;;;4.40;;
72761;SDS011;60886;55.034;73.150;2024-01-07T08:37:16;14.05;;;2.63;;
72761;SDS011;60886;55.034;73.150;2024-01-07T08:40:18;8.98;;;3.00;;
72761;SDS011;60886;55.034;73.150;2024-01-07T08:43:22;14.70;;;3.25;;
72761;SDS011;60886;55.034;73.150;2024-01-07T08:46:25;18.30;;;4.50;;
72761;SDS011;60886;55.034;73.150;2024-01-07T08:49:30;7.83;;;2.73;;
72761;SDS011;60886;55.034;73.150;2024-01-07T08:52:34;12.30;;;4.35;;
72761;SDS011;60886;55.034;73.150;2024-01-07T08:55:36;19.08;;;4.43;;
72761;SDS011;60886;55.034;73.150;2024-01-07T08:58:38;11.03;;;3.83;;
72761;SDS011;60886;55.034;73.150;2024-01-07T09:01:43;11.70;;;4.38;;
72761;SDS011;60886;55.034;73.150;2024-01-07T09:04:45;8.90;;;3.27;;
72761;SDS011;60886;55.034;73.150;2024-01-07T09:07:47;8.75;;;2.60;;
72761;SDS011;60886;55.034;73.150;2024-01-07T09:10:48;8.23;;;3.30;;
72761;SDS011;60886;55.034;73.150;2024-01-07T09:13:53;13.00;;;3.80;;
72761;SDS011;60886;55.034;73.150;2024-01-07T09:16:55;15.10;;;3.70;;
72761;SDS011;60886;55.034;73.150;2024-01-07T09:19:57;9.83;;;2.97;;
72761;SDS011;60886;55.034;73.150;2024-01-07T09:22:58;7.25;;;3.05;;
72761;SDS011;60886;55.034;73.150;2024-01-07T09:26:00;10.73;;;3.03;;
72761;SDS011;60886;55.034;73.150;2024-01-07T09:29:01;7.53;;;2.87;;
72761;SDS011;60886;55.034;73.150;2024-01-07T09:32:03;8.23;;;2.28;;
72761;SDS011;60886;55.034;73.150;2024-01-07T09:35:05;8.35;;;2.67;;
72761;SDS011;60886;55.034;73.150;2024-01-07T09:38:07;8.20;;;2.60;;
72761;SDS011;60886;55.034;73.150;2024-01-07T09:41:08;7.20;;;2.47;;
72761;SDS011;60886;55.034;73.150;2024-01-07T09:44:10;8.50;;;2.33;;
72761;SDS011;60886;55.034;73.150;2024-01-07T09:47:13;6.13;;;1.85;;
72761;SDS011;60886;55.034;73.150;2024-01-07T09:50:16;8.83;;;3.03;;
72761;SDS011;60886;55.034;73.150;2024-01-07T09:53:21;10.77;;;3.13;;
72761;SDS011;60886;55.034;73.150;2024-01-07T09:56:26;15.65;;;5.05;;
72761;SDS011;60886;55.034;73.150;2024-01-07T09:59:37;8.27;;;3.50;;
72761;SDS011;60886;55.034;73.150;2024-01-07T10:02:40;9.73;;;3.00;;
72761;SDS011;60886;55.034;73.150;2024-01-07T10:05:42;6.85;;;2.53;;
72761;SDS011;60886;55.034;73.150;2024-01-07T10:08:53;11.60;;;3.17;;
72761;SDS011;60886;55.034;73.150;2024-01-07T10:11:55;10.23;;;3.08;;
72761;SDS011;60886;55.034;73.150;2024-01-07T10:14:57;7.17;;;2.33;;
72761;SDS011;60886;55.034;73.150;2024-01-07T10:18:03;17.17;;;3.23;;
72761;SDS011;60886;55.034;73.150;2024-01-07T10:21:08;9.95;;;2.28;;
72761;SDS011;60886;55.034;73.150;2024-01-07T10:24:10;7.85;;;2.53;;
72761;SDS011;60886;55.034;73.150;2024-01-07T10:27:13;14.07;;;4.35;;
72761;SDS011;60886;55.034;73.150;2024-01-07T10:30:15;17.33;;;4.40;;
72761;SDS011;60886;55.034;73.150;2024-01-07T10:33:22;14.68;;;3.30;;
72761;SDS011;60886;55.034;73.150;2024-01-07T10:36:25;6.40;;;2.00;;
72761;SDS011;60886;55.034;73.150;2024-01-07T10:39:26;10.48;;;2.25;;
72761;SDS011;60886;55.034;73.150;2024-01-07T10:42:32;11.17;;;3.03;;
72761;SDS011;60886;55.034;73.150;2024-01-07T10:45:37;6.43;;;2.55;;
72761;SDS011;60886;55.034;73.150;2024-01-07T10:48:38;10.67;;;2.97;;
72761;SDS011;60886;55.034;73.150;2024-01-07T10:55:08;10.73;;;3.33;;
72761;SDS011;60886;55.034;73.150;2024-01-07T10:58:13;5.03;;;1.95;;
72761;SDS011;60886;55.034;73.150;2024-01-07T11:01:16;5.47;;;2.13;;
72761;SDS011;60886;55.034;73.150;2024-01-07T11:07:52;7.83;;;3.10;;
72761;SDS011;60886;55.034;73.150;2024-01-07T11:11:25;11.30;;;3.07;;
72761;SDS011;60886;55.034;73.150;2024-01-07T11:14:38;12.65;;;4.30;;
72761;SDS011;60886;55.034;73.150;2024-01-07T11:17:46;15.45;;;3.85;;
72761;SDS011;60886;55.034;73.150;2024-01-07T11:20:51;22.60;;;4.17;;
72761;SDS011;60886;55.034;73.150;2024-01-07T11:23:54;6.68;;;2.28;;
72761;SDS011;60886;55.034;73.150;2024-01-07T11:27:01;12.98;;;5.00;;
72761;SDS011;60886;55.034;73.150;2024-01-07T11:30:17;18.37;;;4.37;;
72761;SDS011;60886;55.034;73.150;2024-01-07T11:33:23;17.20;;;4.67;;
72761;SDS011;60886;55.034;73.150;2024-01-07T11:36:37;12.93;;;4.47;;
72761;SDS011;60886;55.034;73.150;2024-01-07T11:39:45;13.63;;;5.10;;
72761;SDS011;60886;55.034;73.150;2024-01-07T11:42:48;12.75;;;4.45;;
72761;SDS011;60886;55.034;73.150;2024-01-07T11:45:52;11.63;;;4.60;;
72761;SDS011;60886;55.034;73.150;2024-01-07T11:48:58;25.38;;;4.82;;
72761;SDS011;60886;55.034;73.150;2024-01-07T11:52:00;10.77;;;3.50;;
72761;SDS011;60886;55.034;73.150;2024-01-07T11:55:06;7.68;;;3.25;;
72761;SDS011;60886;55.034;73.150;2024-01-07T11:58:10;10.33;;;3.43;;
72761;SDS011;60886;55.034;73.150;2024-01-07T12:01:14;15.00;;;4.90;;
72761;SDS011;60886;55.034;73.150;2024-01-07T12:04:16;16.73;;;5.87;;
72761;SDS011;60886;55.034;73.150;2024-01-07T12:07:18;14.68;;;4.32;;
72761;SDS011;60886;55.034;73.150;2024-01-07T12:10:22;8.37;;;2.93;;
72761;SDS011;60886;55.034;73.150;2024-01-07T12:13:35;20.58;;;4.55;;
72761;SDS011;60886;55.034;73.150;2024-01-07T12:16:57;14.95;;;4.90;;
72761;SDS011;60886;55.034;73.150;2024-01-07T12:20:21;15.13;;;4.33;;
72761;SDS011;60886;55.034;73.150;2024-01-07T12:23:26;13.63;;;4.93;;
72761;SDS011;60886;55.034;73.150;2024-01-07T12:26:28;22.03;;;5.87;;
72761;SDS011;60886;55.034;73.150;2024-01-07T12:29:30;13.20;;;5.03;;
72761;SDS011;60886;55.034;73.150;2024-01-07T12:32:32;17.52;;;5.45;;
72761;SDS011;60886;55.034;73.150;2024-01-07T12:35:34;12.30;;;4.70;;
72761;SDS011;60886;55.034;73.150;2024-01-07T12:38:38;10.87;;;3.90;;
72761;SDS011;60886;55.034;73.150;2024-01-07T12:41:41;13.17;;;3.80;;
72761;SDS011;60886;55.034;73.150;2024-01-07T12:44:43;15.93;;;5.57;;
72761;SDS011;60886;55.034;73.150;2024-01-07T12:47:45;15.35;;;5.15;;
72761;SDS011;60886;55.034;73.150;2024-01-07T12:50:48;12.97;;;3.40;;
72761;SDS011;60886;55.034;73.150;2024-01-07T12:53:53;13.02;;;4.15;;
72761;SDS011;60886;55.034;73.150;2024-01-07T12:56:58;9.48;;;3.72;;
72761;SDS011;60886;55.034;73.150;2024-01-07T13:00:13;16.73;;;4.22;;
72761;SDS011;60886;55.034;73.150;2024-01-07T13:03:18;15.40;;;5.20;;
72761;SDS011;60886;55.034;73.150;2024-01-07T13:06:25;14.95;;;4.30;;
72761;SDS011;60886;55.034;73.150;2024-01-07T13:09:26;11.83;;;4.73;;
72761;SDS011;60886;55.034;73.150;2024-01-07T13:12:28;11.73;;;4.38;;
72761;SDS011;60886;55.034;73.150;2024-01-07T13:15:44;11.90;;;4.53;;
72761;SDS011;60886;55.034;73.150;2024-01-07T13:18:53;8.39;;;3.21;;
72761;SDS011;60886;55.034;73.150;2024-01-07T13:21:58;14.87;;;3.63;;
72761;SDS011;60886;55.034;73.150;2024-01-07T13:25:00;10.75;;;4.45;;
72761;SDS011;60886;55.034;73.150;2024-01-07T13:28:04;12.85;;;3.90;;
72761;SDS011;60886;55.034;73.150;2024-01-07T13:31:09;12.10;;;4.23;;
72761;SDS011;60886;55.034;73.150;2024-01-07T13:34:14;11.20;;;3.53;;
72761;SDS011;60886;55.034;73.150;2024-01-07T13:37:15;13.97;;;3.37;;
72761;SDS011;60886;55.034;73.150;2024-01-07T13:40:18;11.15;;;3.67;;
72761;SDS011;60886;55.034;73.150;2024-01-07T13:43:24;12.88;;;4.40;;
72761;SDS011;60886;55.034;73.150;2024-01-07T13:46:26;11.27;;;4.38;;
72761;SDS011;60886;55.034;73.150;2024-01-07T13:49:29;16.55;;;5.50;;
72761;SDS011;60886;55.034;73.150;2024-01-07T13:52:39;13.75;;;5.65;;
72761;SDS011;60886;55.034;73.150;2024-01-07T13:55:41;19.13;;;4.67;;
72761;SDS011;60886;55.034;73.150;2024-01-07T13:58:43;11.32;;;4.70;;
72761;SDS011;60886;55.034;73.150;2024-01-07T14:01:51;16.20;;;4.60;;
72761;SDS011;60886;55.034;73.150;2024-01-07T14:04:53;13.37;;;3.93;;
72761;SDS011;60886;55.034;73.150;2024-01-07T14:07:54;13.57;;;4.10;;
72761;SDS011;60886;55.034;73.150;2024-01-07T14:10:56;10.23;;;3.67;;
72761;SDS011;60886;55.034;73.150;2024-01-07T14:13:58;19.05;;;5.80;;
72761;SDS011;60886;55.034;73.150;2024-01-07T14:17:00;14.25;;;4.50;;
72761;SDS011;60886;55.034;73.150;2024-01-07T14:20:04;14.30;;;5.47;;
72761;SDS011;60886;55.034;73.150;2024-01-07T14:23:11;19.10;;;4.85;;
72761;SDS011;60886;55.034;73.150;2024-01-07T14:26:16;12.97;;;5.07;;
72761;SDS011;60886;55.034;73.150;2024-01-07T14:29:18;13.40;;;4.65;;
72761;SDS011;60886;55.034;73.150;2024-01-07T14:32:19;19.60;;;5.90;;
72761;SDS011;60886;55.034;73.150;2024-01-07T14:35:21;16.52;;;5.75;;
72761;SDS011;60886;55.034;73.150;2024-01-07T14:38:24;15.80;;;5.30;;
72761;SDS011;60886;55.034;73.150;2024-01-07T14:41:26;18.90;;;6.32;;
72761;SDS011;60886;55.034;73.150;2024-01-07T14:44:28;30.15;;;6.82;;
72761;SDS011;60886;55.034;73.150;2024-01-07T14:47:30;18.83;;;7.90;;
72761;SDS011;60886;55.034;73.150;2024-01-07T14:50:32;20.00;;;5.68;;
72761;SDS011;60886;55.034;73.150;2024-01-07T14:53:37;16.33;;;4.97;;
72761;SDS011;60886;55.034;73.150;2024-01-07T14:56:38;15.75;;;5.47;;
72761;SDS011;60886;55.034;73.150;2024-01-07T14:59:40;19.88;;;5.60;;
72761;SDS011;60886;55.034;73.150;2024-01-07T15:02:41;24.42;;;7.10;;
72761;SDS011;60886;55.034;73.150;2024-01-07T15:05:43;15.02;;;5.95;;
72761;SDS011;60886;55.034;73.150;2024-01-07T15:08:53;17.01;;;6.16;;
72761;SDS011;60886;55.034;73.150;2024-01-07T15:11:55;18.02;;;6.38;;
72761;SDS011;60886;55.034;73.150;2024-01-07T15:14:57;22.13;;;6.72;;
72761;SDS011;60886;55.034;73.150;2024-01-07T15:17:58;17.40;;;6.50;;
72761;SDS011;60886;55.034;73.150;2024-01-07T15:21:01;23.10;;;8.90;;
72761;SDS011;60886;55.034;73.150;2024-01-07T15:24:04;27.03;;;7.07;;
72761;SDS011;60886;55.034;73.150;2024-01-07T15:27:05;15.27;;;5.60;;
72761;SDS011;60886;55.034;73.150;2024-01-07T15:30:08;25.40;;;7.87;;
72761;SDS011;60886;55.034;73.150;2024-01-07T15:33:12;22.63;;;7.63;;
72761;SDS011;60886;55.034;73.150;2024-01-07T15:36:14;19.85;;;7.18;;
72761;SDS011;60886;55.034;73.150;2024-01-07T15:39:15;23.13;;;7.15;;
72761;SDS011;60886;55.034;73.150;2024-01-07T15:42:20;31.02;;;5.97;;
72761;SDS011;60886;55.034;73.150;2024-01-07T15:45:22;21.70;;;6.30;;
72761;SDS011;60886;55.034;73.150;2024-01-07T15:48:37;19.75;;;6.22;;
72761;SDS011;60886;55.034;73.150;2024-01-07T15:51:47;27.85;;;6.57;;
72761;SDS011;60886;55.034;73.150;2024-01-07T15:55:03;22.63;;;5.67;;
72761;SDS011;60886;55.034;73.150;2024-01-07T15:58:14;17.42;;;5.22;;
72761;SDS011;60886;55.034;73.150;2024-01-07T16:01:25;21.00;;;6.13;;
72761;SDS011;60886;55.034;73.150;2024-01-07T16:04:31;21.48;;;6.10;;
72761;SDS011;60886;55.034;73.150;2024-01-07T16:07:48;26.40;;;6.85;;
72761;SDS011;60886;55.034;73.150;2024-01-07T16:10:57;14.47;;;5.07;;
72761;SDS011;60886;55.034;73.150;2024-01-07T16:14:06;18.50;;;3.83;;
72761;SDS011;60886;55.034;73.150;2024-01-07T16:17:08;20.30;;;6.95;;
72761;SDS011;60886;55.034;73.150;2024-01-07T16:20:11;24.50;;;7.45;;
72761;SDS011;60886;55.034;73.150;2024-01-07T16:23:17;25.17;;;6.55;;
72761;SDS011;60886;55.034;73.150;2024-01-07T16:26:18;24.40;;;7.30;;
72761;SDS011;60886;55.034;73.150;2024-01-07T16:29:20;17.83;;;5.77;;
72761;SDS011;60886;55.034;73.150;2024-01-07T16:32:23;27.88;;;5.88;;
72761;SDS011;60886;55.034;73.150;2024-01-07T16:35:25;25.97;;;5.87;;
72761;SDS011;60886;55.034;73.150;2024-01-07T16:38:27;26.10;;;6.85;;
72761;SDS011;60886;55.034;73.150;2024-01-07T16:41:28;16.90;;;5.77;;
72761;SDS011;60886;55.034;73.150;2024-01-07T16:44:30;28.35;;;7.10;;
72761;SDS011;60886;55.034;73.150;2024-01-07T16:47:32;23.52;;;7.32;;
72761;SDS011;60886;55.034;73.150;2024-01-07T16:50:34;20.37;;;6.73;;
72761;SDS011;60886;55.034;73.150;2024-01-07T16:53:39;24.50;;;6.93;;
72761;SDS011;60886;55.034;73.150;2024-01-07T16:56:41;27.33;;;8.02;;
72761;SDS011;60886;55.034;73.150;2024-01-07T16:59:42;31.27;;;7.73;;
72761;SDS011;60886;55.034;73.150;2024-01-07T17:02:45;22.15;;;7.25;;
72761;SDS011;60886;55.034;73.150;2024-01-07T17:05:47;24.83;;;7.13;;
72761;SDS011;60886;55.034;73.150;2024-01-07T17:08:53;21.60;;;6.15;;
72761;SDS011;60886;55.034;73.150;2024-01-07T17:11:55;26.30;;;7.95;;
72761;SDS011;60886;55.034;73.150;2024-01-07T17:14:57;26.23;;;8.27;;
72761;SDS011;60886;55.034;73.150;2024-01-07T17:18:00;20.70;;;6.17;;
72761;SDS011;60886;55.034;73.150;2024-01-07T17:21:01;25.08;;;6.97;;
72761;SDS011;60886;55.034;73.150;2024-01-07T17:24:03;26.38;;;7.38;;
72761;SDS011;60886;55.034;73.150;2024-01-07T17:27:04;26.40;;;6.75;;
72761;SDS011;60886;55.034;73.150;2024-01-07T17:30:09;26.20;;;5.63;;
72761;SDS011;60886;55.034;73.150;2024-01-07T17:33:12;25.92;;;6.68;;
72761;SDS011;60886;55.034;73.150;2024-01-07T17:36:15;27.80;;;7.90;;
72761;SDS011;60886;55.034;73.150;2024-01-07T17:39:17;20.38;;;6.20;;
72761;SDS011;60886;55.034;73.150;2024-01-07T17:42:21;25.83;;;7.97;;
72761;SDS011;60886;55.034;73.150;2024-01-07T17:45:22;17.73;;;5.93;;
72761;SDS011;60886;55.034;73.150;2024-01-07T17:48:25;20.50;;;5.35;;
72761;SDS011;60886;55.034;73.150;2024-01-07T17:51:26;23.93;;;7.57;;
72761;SDS011;60886;55.034;73.150;2024-01-07T17:54:33;18.30;;;6.28;;
72761;SDS011;60886;55.034;73.150;2024-01-07T17:57:37;25.35;;;6.43;;
72761;SDS011;60886;55.034;73.150;2024-01-07T18:00:40;19.00;;;6.63;;
72761;SDS011;60886;55.034;73.150;2024-01-07T18:03:42;19.50;;;6.38;;
72761;SDS011;60886;55.034;73.150;2024-01-07T18:06:44;24.53;;;6.13;;